sensor_id;sensor_type;location;lat;lon;timestamp;pressure;altitude;pressure_sealevel;temperature;humidity
59009;BME280;44794;42.652;23.318;2023-01-31T00:01:36;94075.72;;;-0.42;86.57
59009;BME280;44794;42.652;23.318;2023-01-31T00:04:05;94067.94;;;-0.39;87.04
59009;BME280;44794;42.652;23.318;2023-01-31T00:06:39;94079.81;;;-0.38;87.49
59009;BME280;44794;42.652;23.318;2023-01-31T00:09:07;94087.47;;;-0.38;87.36
59009;BME280;44794;42.652;23.318;2023-01-31T00:11:33;94092.50;;;-0.36;86.41
59009;BME280;44794;42.652;23.318;2023-01-31T00:13:59;94086.31;;;-0.51;85.65
59009;BME280;44794;42.652;23.318;2023-01-31T00:16:26;94076.13;;;-0.51;85.25
59009;BME280;44794;42.652;23.318;2023-01-31T00:18:51;94073.63;;;-0.74;85.70
59009;BME280;44794;42.652;23.318;2023-01-31T00:21:20;94068.91;;;-0.82;86.59
59009;BME280;44794;42.652;23.318;2023-01-31T00:23:47;94072.47;;;-0.86;87.08
59009;BME280;44794;42.652;23.318;2023-01-31T00:26:24;94073.25;;;-0.84;87.08
59009;BME280;44794;42.652;23.318;2023-01-31T00:28:52;94068.94;;;-0.63;87.01
59009;BME280;44794;42.652;23.318;2023-01-31T00:31:19;94082.88;;;-0.50;85.92
59009;BME280;44794;42.652;23.318;2023-01-31T00:33:46;94078.78;;;-0.54;85.79
59009;BME280;44794;42.652;23.318;2023-01-31T00:36:15;94084.81;;;-0.56;86.38
59009;BME280;44794;42.652;23.318;2023-01-31T00:38:41;94085.53;;;-0.53;86.84
59009;BME280;44794;42.652;23.318;2023-01-31T00:41:07;94079.63;;;-0.53;87.15
59009;BME280;44794;42.652;23.318;2023-01-31T00:43:33;94078.47;;;-0.46;87.70
59009;BME280;44794;42.652;23.318;2023-01-31T00:45:59;94088.47;;;-0.42;87.75
59009;BME280;44794;42.652;23.318;2023-01-31T00:48:25;94078.34;;;-0.43;87.69
59009;BME280;44794;42.652;23.318;2023-01-31T00:50:51;94086.50;;;-0.35;87.66
59009;BME280;44794;42.652;23.318;2023-01-31T00:53:17;94078.94;;;-0.37;87.06
59009;BME280;44794;42.652;23.318;2023-01-31T00:55:48;94081.16;;;-0.29;86.26
59009;BME280;44794;42.652;23.318;2023-01-31T00:58:13;94078.53;;;-0.28;86.00
59009;BME280;44794;42.652;23.318;2023-01-31T01:00:38;94078.78;;;-0.34;85.86
59009;BME280;44794;42.652;23.318;2023-01-31T01:03:04;94074.34;;;-0.29;84.40
59009;BME280;44794;42.652;23.318;2023-01-31T01:05:29;94073.69;;;-0.34;85.20
59009;BME280;44794;42.652;23.318;2023-01-31T01:07:54;94073.44;;;-0.28;85.87
59009;BME280;44794;42.652;23.318;2023-01-31T01:10:20;94094.53;;;-0.24;85.61
59009;BME280;44794;42.652;23.318;2023-01-31T01:12:45;94091.66;;;-0.57;84.92
59009;BME280;44794;42.652;23.318;2023-01-31T01:15:11;94097.56;;;-0.56;84.72
59009;BME280;44794;42.652;23.318;2023-01-31T01:17:36;94108.66;;;-0.57;85.04
59009;BME280;44794;42.652;23.318;2023-01-31T01:20:02;94094.94;;;-0.55;85.11
59009;BME280;44794;42.652;23.318;2023-01-31T01:22:29;94086.16;;;-0.48;85.13
59009;BME280;44794;42.652;23.318;2023-01-31T01:24:55;94090.19;;;-0.42;85.22
59009;BME280;44794;42.652;23.318;2023-01-31T01:27:20;94078.34;;;-0.43;85.35
59009;BME280;44794;42.652;23.318;2023-01-31T01:29:46;94074.00;;;-0.41;85.61
59009;BME280;44794;42.652;23.318;2023-01-31T01:32:11;94073.25;;;-0.43;82.57
59009;BME280;44794;42.652;23.318;2023-01-31T01:34:36;94079.72;;;-0.15;75.82
59009;BME280;44794;42.652;23.318;2023-01-31T01:37:02;94081.34;;;0.26;69.63
59009;BME280;44794;42.652;23.318;2023-01-31T01:39:36;94084.41;;;0.52;62.93
59009;BME280;44794;42.652;23.318;2023-01-31T01:42:02;94085.56;;;0.64;59.65
59009;BME280;44794;42.652;23.318;2023-01-31T01:44:48;94084.38;;;0.90;56.06
59009;BME280;44794;42.652;23.318;2023-01-31T01:47:53;94088.63;;;1.08;54.37
59009;BME280;44794;42.652;23.318;2023-01-31T01:52:51;94090.47;;;1.23;54.63
59009;BME280;44794;42.652;23.318;2023-01-31T01:55:37;94084.38;;;1.26;55.21
59009;BME280;44794;42.652;23.318;2023-01-31T02:00:37;94072.72;;;1.20;55.64
59009;BME280;44794;42.652;23.318;2023-01-31T02:03:05;94074.44;;;1.20;55.11
59009;BME280;44794;42.652;23.318;2023-01-31T02:05:53;94064.47;;;1.32;53.89
59009;BME280;44794;42.652;23.318;2023-01-31T02:08:22;94072.41;;;1.26;53.24
59009;BME280;44794;42.652;23.318;2023-01-31T02:13:34;94080.16;;;1.25;52.60
59009;BME280;44794;42.652;23.318;2023-01-31T02:16:00;94085.66;;;1.17;53.01
59009;BME280;44794;42.652;23.318;2023-01-31T02:18:26;94089.19;;;1.15;53.09
59009;BME280;44794;42.652;23.318;2023-01-31T02:24:21;94086.47;;;0.99;53.81
59009;BME280;44794;42.652;23.318;2023-01-31T02:32:41;94071.84;;;0.84;54.00
59009;BME280;44794;42.652;23.318;2023-01-31T02:35:37;94081.03;;;0.88;53.73
59009;BME280;44794;42.652;23.318;2023-01-31T02:38:15;94081.31;;;0.82;53.49
59009;BME280;44794;42.652;23.318;2023-01-31T02:40:57;94088.63;;;0.90;52.77
59009;BME280;44794;42.652;23.318;2023-01-31T02:46:05;94084.13;;;0.95;54.13
59009;BME280;44794;42.652;23.318;2023-01-31T02:51:19;94082.34;;;0.97;55.54
59009;BME280;44794;42.652;23.318;2023-01-31T02:54:06;94087.44;;;0.97;56.07
59009;BME280;44794;42.652;23.318;2023-01-31T02:56:35;94098.66;;;0.94;56.85
59009;BME280;44794;42.652;23.318;2023-01-31T02:59:05;94103.75;;;0.94;57.47
59009;BME280;44794;42.652;23.318;2023-01-31T03:01:37;94105.53;;;0.92;57.63
59009;BME280;44794;42.652;23.318;2023-01-31T03:04:09;94113.91;;;0.96;57.92
59009;BME280;44794;42.652;23.318;2023-01-31T03:20:06;94140.09;;;0.82;64.36
59009;BME280;44794;42.652;23.318;2023-01-31T03:22:40;94133.44;;;0.78;65.29
59009;BME280;44794;42.652;23.318;2023-01-31T03:25:09;94140.41;;;0.75;66.15
59009;BME280;44794;42.652;23.318;2023-01-31T03:27:37;94141.84;;;0.62;67.61
59009;BME280;44794;42.652;23.318;2023-01-31T03:30:13;94139.38;;;0.61;68.80
59009;BME280;44794;42.652;23.318;2023-01-31T03:32:48;94135.03;;;0.63;70.53
59009;BME280;44794;42.652;23.318;2023-01-31T03:35:19;94137.72;;;0.60;72.22
59009;BME280;44794;42.652;23.318;2023-01-31T03:38:00;94146.25;;;0.59;73.36
59009;BME280;44794;42.652;23.318;2023-01-31T03:40:40;94157.25;;;0.61;73.84
59009;BME280;44794;42.652;23.318;2023-01-31T03:43:25;94166.44;;;0.65;74.37
59009;BME280;44794;42.652;23.318;2023-01-31T03:46:00;94165.34;;;0.70;74.64
59009;BME280;44794;42.652;23.318;2023-01-31T03:48:32;94176.38;;;0.71;74.86
59009;BME280;44794;42.652;23.318;2023-01-31T03:51:03;94173.81;;;0.71;75.45
59009;BME280;44794;42.652;23.318;2023-01-31T03:53:57;94167.81;;;0.72;76.63
59009;BME280;44794;42.652;23.318;2023-01-31T03:59:07;94172.00;;;0.54;78.72
59009;BME280;44794;42.652;23.318;2023-01-31T04:01:38;94172.25;;;0.48;79.75
59009;BME280;44794;42.652;23.318;2023-01-31T04:04:17;94192.63;;;0.50;80.24
59009;BME280;44794;42.652;23.318;2023-01-31T04:06:43;94170.78;;;0.43;80.72
59009;BME280;44794;42.652;23.318;2023-01-31T04:09:09;94185.22;;;0.44;80.81
59009;BME280;44794;42.652;23.318;2023-01-31T04:11:37;94175.16;;;0.41;81.21
59009;BME280;44794;42.652;23.318;2023-01-31T04:14:03;94175.34;;;0.36;81.66
59009;BME280;44794;42.652;23.318;2023-01-31T04:16:28;94189.69;;;0.39;81.98
59009;BME280;44794;42.652;23.318;2023-01-31T04:18:54;94188.94;;;0.37;82.25
59009;BME280;44794;42.652;23.318;2023-01-31T04:21:21;94180.63;;;0.32;82.83
59009;BME280;44794;42.652;23.318;2023-01-31T04:23:46;94195.19;;;0.30;83.21
59009;BME280;44794;42.652;23.318;2023-01-31T04:26:12;94200.28;;;0.30;83.80
59009;BME280;44794;42.652;23.318;2023-01-31T04:28:37;94196.28;;;0.24;84.47
59009;BME280;44794;42.652;23.318;2023-01-31T04:31:02;94207.50;;;0.20;84.85
59009;BME280;44794;42.652;23.318;2023-01-31T04:33:28;94204.25;;;0.17;85.16
59009;BME280;44794;42.652;23.318;2023-01-31T04:35:53;94205.91;;;0.18;85.41
59009;BME280;44794;42.652;23.318;2023-01-31T04:38:19;94206.00;;;0.15;85.81
59009;BME280;44794;42.652;23.318;2023-01-31T04:40:44;94205.31;;;0.11;86.39
59009;BME280;44794;42.652;23.318;2023-01-31T04:43:10;94208.19;;;0.04;86.61
59009;BME280;44794;42.652;23.318;2023-01-31T04:45:36;94201.31;;;0.06;87.17
59009;BME280;44794;42.652;23.318;2023-01-31T04:48:01;94207.47;;;0.00;87.60
59009;BME280;44794;42.652;23.318;2023-01-31T04:50:28;94215.84;;;0.04;87.59
59009;BME280;44794;42.652;23.318;2023-01-31T04:52:53;94212.66;;;-0.01;87.81
59009;BME280;44794;42.652;23.318;2023-01-31T04:55:20;94225.28;;;0.02;87.97
59009;BME280;44794;42.652;23.318;2023-01-31T04:57:45;94208.28;;;0.01;88.14
59009;BME280;44794;42.652;23.318;2023-01-31T05:00:11;94210.09;;;-0.01;88.46
59009;BME280;44794;42.652;23.318;2023-01-31T05:02:37;94199.13;;;-0.03;88.61
59009;BME280;44794;42.652;23.318;2023-01-31T05:05:04;94204.13;;;0.00;88.43
59009;BME280;44794;42.652;23.318;2023-01-31T05:07:29;94210.84;;;0.01;87.91
59009;BME280;44794;42.652;23.318;2023-01-31T05:09:55;94221.03;;;0.02;87.95
59009;BME280;44794;42.652;23.318;2023-01-31T05:12:20;94215.22;;;-0.01;88.41
59009;BME280;44794;42.652;23.318;2023-01-31T05:14:46;94216.09;;;-0.02;88.50
59009;BME280;44794;42.652;23.318;2023-01-31T05:17:11;94209.00;;;0.04;88.26
59009;BME280;44794;42.652;23.318;2023-01-31T05:19:37;94210.09;;;-0.01;88.07
59009;BME280;44794;42.652;23.318;2023-01-31T05:22:02;94209.66;;;0.09;88.04
59009;BME280;44794;42.652;23.318;2023-01-31T05:24:30;94208.06;;;0.07;88.12
59009;BME280;44794;42.652;23.318;2023-01-31T05:26:58;94212.25;;;0.08;87.92
59009;BME280;44794;42.652;23.318;2023-01-31T05:29:28;94227.47;;;0.11;87.59
59009;BME280;44794;42.652;23.318;2023-01-31T05:31:55;94241.91;;;0.12;87.24
59009;BME280;44794;42.652;23.318;2023-01-31T05:34:22;94225.63;;;0.14;87.29
59009;BME280;44794;42.652;23.318;2023-01-31T05:36:52;94221.28;;;0.16;87.02
59009;BME280;44794;42.652;23.318;2023-01-31T05:39:17;94226.44;;;0.15;86.79
59009;BME280;44794;42.652;23.318;2023-01-31T05:41:43;94226.50;;;0.13;86.71
59009;BME280;44794;42.652;23.318;2023-01-31T05:44:08;94229.69;;;0.18;86.30
59009;BME280;44794;42.652;23.318;2023-01-31T05:46:35;94248.28;;;0.22;86.67
59009;BME280;44794;42.652;23.318;2023-01-31T05:49:00;94232.91;;;0.23;86.38
59009;BME280;44794;42.652;23.318;2023-01-31T05:51:25;94237.25;;;0.21;86.49
59009;BME280;44794;42.652;23.318;2023-01-31T05:53:51;94243.88;;;0.25;86.61
59009;BME280;44794;42.652;23.318;2023-01-31T05:56:16;94244.81;;;0.23;86.87
59009;BME280;44794;42.652;23.318;2023-01-31T05:58:42;94240.56;;;0.23;86.82
59009;BME280;44794;42.652;23.318;2023-01-31T06:01:07;94241.28;;;0.27;86.67
59009;BME280;44794;42.652;23.318;2023-01-31T06:03:33;94242.81;;;0.31;86.29
59009;BME280;44794;42.652;23.318;2023-01-31T06:05:59;94246.06;;;0.34;86.31
59009;BME280;44794;42.652;23.318;2023-01-31T06:08:24;94251.75;;;0.41;86.19
59009;BME280;44794;42.652;23.318;2023-01-31T06:10:50;94258.31;;;0.46;85.76
59009;BME280;44794;42.652;23.318;2023-01-31T06:13:15;94254.69;;;0.52;85.63
59009;BME280;44794;42.652;23.318;2023-01-31T06:15:44;94266.22;;;0.62;85.52
59009;BME280;44794;42.652;23.318;2023-01-31T06:18:10;94270.91;;;0.71;85.37
59009;BME280;44794;42.652;23.318;2023-01-31T06:20:36;94263.25;;;0.71;85.21
59009;BME280;44794;42.652;23.318;2023-01-31T06:23:03;94263.13;;;0.73;85.02
59009;BME280;44794;42.652;23.318;2023-01-31T06:25:29;94267.41;;;0.73;84.91
59009;BME280;44794;42.652;23.318;2023-01-31T06:27:55;94273.94;;;0.80;85.00
59009;BME280;44794;42.652;23.318;2023-01-31T06:30:21;94273.09;;;0.79;84.95
59009;BME280;44794;42.652;23.318;2023-01-31T06:32:46;94270.53;;;0.79;84.75
59009;BME280;44794;42.652;23.318;2023-01-31T06:35:12;94276.97;;;0.88;84.58
59009;BME280;44794;42.652;23.318;2023-01-31T06:37:37;94268.41;;;0.89;84.38
59009;BME280;44794;42.652;23.318;2023-01-31T06:40:03;94276.84;;;0.91;84.57
59009;BME280;44794;42.652;23.318;2023-01-31T06:42:28;94272.31;;;0.97;84.48
59009;BME280;44794;42.652;23.318;2023-01-31T06:44:54;94275.69;;;0.98;84.28
59009;BME280;44794;42.652;23.318;2023-01-31T06:47:19;94279.78;;;1.02;84.44
59009;BME280;44794;42.652;23.318;2023-01-31T06:49:44;94279.31;;;1.12;84.75
59009;BME280;44794;42.652;23.318;2023-01-31T06:52:10;94280.03;;;0.96;84.74
59009;BME280;44794;42.652;23.318;2023-01-31T06:54:35;94284.25;;;0.97;85.22
59009;BME280;44794;42.652;23.318;2023-01-31T06:57:01;94286.28;;;1.09;85.37
59009;BME280;44794;42.652;23.318;2023-01-31T06:59:26;94286.97;;;1.12;85.13
59009;BME280;44794;42.652;23.318;2023-01-31T07:01:51;94287.69;;;1.16;85.14
59009;BME280;44794;42.652;23.318;2023-01-31T07:04:17;94291.31;;;1.30;84.91
59009;BME280;44794;42.652;23.318;2023-01-31T07:06:42;94283.16;;;1.22;84.23
59009;BME280;44794;42.652;23.318;2023-01-31T07:09:08;94288.25;;;1.22;83.96
59009;BME280;44794;42.652;23.318;2023-01-31T07:11:33;94291.59;;;1.24;84.00
59009;BME280;44794;42.652;23.318;2023-01-31T07:13:59;94290.31;;;1.14;83.55
59009;BME280;44794;42.652;23.318;2023-01-31T07:16:24;94297.66;;;1.22;83.32
59009;BME280;44794;42.652;23.318;2023-01-31T07:18:53;94300.97;;;1.24;83.08
59009;BME280;44794;42.652;23.318;2023-01-31T07:21:20;94312.75;;;1.28;82.94
59009;BME280;44794;42.652;23.318;2023-01-31T07:23:47;94300.22;;;1.22;83.21
59009;BME280;44794;42.652;23.318;2023-01-31T07:26:13;94302.78;;;1.22;83.36
59009;BME280;44794;42.652;23.318;2023-01-31T07:28:39;94297.88;;;1.17;83.67
59009;BME280;44794;42.652;23.318;2023-01-31T07:31:07;94297.22;;;1.12;84.23
59009;BME280;44794;42.652;23.318;2023-01-31T07:33:35;94286.50;;;1.23;84.49
59009;BME280;44794;42.652;23.318;2023-01-31T07:36:01;94290.75;;;1.24;84.77
59009;BME280;44794;42.652;23.318;2023-01-31T07:38:29;94284.03;;;1.21;84.80
59009;BME280;44794;42.652;23.318;2023-01-31T07:40:58;94286.91;;;1.34;84.58
59009;BME280;44794;42.652;23.318;2023-01-31T07:43:24;94294.88;;;1.26;84.30
59009;BME280;44794;42.652;23.318;2023-01-31T07:45:50;94290.94;;;1.39;84.21
59009;BME280;44794;42.652;23.318;2023-01-31T07:48:15;94298.81;;;1.53;84.35
59009;BME280;44794;42.652;23.318;2023-01-31T07:50:41;94292.03;;;1.52;83.74
59009;BME280;44794;42.652;23.318;2023-01-31T07:53:06;94289.75;;;1.46;84.04
59009;BME280;44794;42.652;23.318;2023-01-31T07:55:31;94244.31;;;1.51;83.81
59009;BME280;44794;42.652;23.318;2023-01-31T07:57:57;94287.63;;;1.55;84.35
59009;BME280;44794;42.652;23.318;2023-01-31T08:00:22;94293.00;;;1.68;84.16
59009;BME280;44794;42.652;23.318;2023-01-31T08:03:22;94284.41;;;1.69;83.95
59009;BME280;44794;42.652;23.318;2023-01-31T08:06:07;94283.31;;;1.74;84.53
59009;BME280;44794;42.652;23.318;2023-01-31T08:08:34;94286.97;;;1.69;84.47
59009;BME280;44794;42.652;23.318;2023-01-31T08:11:00;94288.31;;;1.59;84.96
59009;BME280;44794;42.652;23.318;2023-01-31T08:13:25;94272.19;;;1.57;84.78
59009;BME280;44794;42.652;23.318;2023-01-31T08:15:52;94275.56;;;1.76;84.48
59009;BME280;44794;42.652;23.318;2023-01-31T08:18:17;94281.94;;;2.04;83.65
59009;BME280;44794;42.652;23.318;2023-01-31T08:20:43;94279.69;;;1.97;82.20
59009;BME280;44794;42.652;23.318;2023-01-31T08:23:08;94276.94;;;1.83;82.66
59009;BME280;44794;42.652;23.318;2023-01-31T08:25:34;94272.50;;;2.05;82.45
59009;BME280;44794;42.652;23.318;2023-01-31T08:28:00;94269.47;;;1.97;82.54
59009;BME280;44794;42.652;23.318;2023-01-31T08:30:27;94248.84;;;2.00;81.50
59009;BME280;44794;42.652;23.318;2023-01-31T08:32:52;94274.72;;;2.12;80.99
59009;BME280;44794;42.652;23.318;2023-01-31T08:35:18;94268.16;;;2.07;80.73
59009;BME280;44794;42.652;23.318;2023-01-31T08:37:44;94267.81;;;2.31;80.11
59009;BME280;44794;42.652;23.318;2023-01-31T08:40:09;94247.06;;;2.54;79.37
59009;BME280;44794;42.652;23.318;2023-01-31T08:42:35;94281.34;;;2.68;78.48
59009;BME280;44794;42.652;23.318;2023-01-31T08:45:01;94279.22;;;2.76;77.72
59009;BME280;44794;42.652;23.318;2023-01-31T08:47:27;94281.78;;;2.76;78.08
59009;BME280;44794;42.652;23.318;2023-01-31T08:49:52;94272.59;;;2.55;78.33
59009;BME280;44794;42.652;23.318;2023-01-31T08:52:18;94275.22;;;2.71;78.66
59009;BME280;44794;42.652;23.318;2023-01-31T08:54:44;94278.66;;;2.36;79.52
59009;BME280;44794;42.652;23.318;2023-01-31T08:57:09;94264.56;;;2.44;80.14
59009;BME280;44794;42.652;23.318;2023-01-31T08:59:35;94275.13;;;2.38;79.81
59009;BME280;44794;42.652;23.318;2023-01-31T09:02:00;94269.19;;;2.38;79.78
59009;BME280;44794;42.652;23.318;2023-01-31T09:04:26;94270.63;;;2.43;79.61
59009;BME280;44794;42.652;23.318;2023-01-31T09:06:51;94274.25;;;2.73;79.22
59009;BME280;44794;42.652;23.318;2023-01-31T09:09:18;94276.56;;;3.11;77.13
59009;BME280;44794;42.652;23.318;2023-01-31T09:11:44;94285.38;;;3.23;75.97
59009;BME280;44794;42.652;23.318;2023-01-31T09:14:09;94288.38;;;3.14;74.48
59009;BME280;44794;42.652;23.318;2023-01-31T09:16:35;94295.06;;;2.84;76.11
59009;BME280;44794;42.652;23.318;2023-01-31T09:19:01;94290.81;;;3.00;74.96
59009;BME280;44794;42.652;23.318;2023-01-31T09:21:27;94279.75;;;3.16;74.57
59009;BME280;44794;42.652;23.318;2023-01-31T09:23:55;94273.22;;;3.26;74.71
59009;BME280;44794;42.652;23.318;2023-01-31T09:26:21;94276.09;;;3.20;73.95
59009;BME280;44794;42.652;23.318;2023-01-31T09:28:46;94274.97;;;3.26;73.40
59009;BME280;44794;42.652;23.318;2023-01-31T09:31:15;94274.47;;;3.35;72.10
59009;BME280;44794;42.652;23.318;2023-01-31T09:33:41;94258.66;;;3.27;72.46
59009;BME280;44794;42.652;23.318;2023-01-31T09:36:26;94261.38;;;3.24;72.71
59009;BME280;44794;42.652;23.318;2023-01-31T09:38:54;94277.13;;;2.84;73.91
59009;BME280;44794;42.652;23.318;2023-01-31T09:41:38;94267.53;;;2.88;74.55
59009;BME280;44794;42.652;23.318;2023-01-31T09:46:39;94246.94;;;2.89;74.29
59009;BME280;44794;42.652;23.318;2023-01-31T09:49:09;94244.50;;;3.03;74.38
59009;BME280;44794;42.652;23.318;2023-01-31T09:51:39;94240.88;;;3.07;74.43
59009;BME280;44794;42.652;23.318;2023-01-31T09:54:14;94225.00;;;3.00;74.30
59009;BME280;44794;42.652;23.318;2023-01-31T09:56:50;94227.28;;;2.73;74.51
59009;BME280;44794;42.652;23.318;2023-01-31T09:59:27;94230.84;;;2.70;74.79
59009;BME280;44794;42.652;23.318;2023-01-31T10:07:36;94242.84;;;3.19;72.56
59009;BME280;44794;42.652;23.318;2023-01-31T10:12:44;94236.78;;;2.88;73.46
59009;BME280;44794;42.652;23.318;2023-01-31T10:15:17;94235.28;;;2.67;74.54
59009;BME280;44794;42.652;23.318;2023-01-31T10:17:50;94241.16;;;2.52;75.00
59009;BME280;44794;42.652;23.318;2023-01-31T10:20:37;94235.34;;;2.65;75.22
59009;BME280;44794;42.652;23.318;2023-01-31T10:23:09;94232.38;;;3.06;74.84
59009;BME280;44794;42.652;23.318;2023-01-31T10:25:49;94243.31;;;3.25;72.66
59009;BME280;44794;42.652;23.318;2023-01-31T10:33:56;94231.81;;;3.49;69.46
59009;BME280;44794;42.652;23.318;2023-01-31T10:37:00;94231.56;;;3.54;69.77
59009;BME280;44794;42.652;23.318;2023-01-31T10:39:28;94236.84;;;3.51;68.93
59009;BME280;44794;42.652;23.318;2023-01-31T10:44:49;94230.03;;;3.02;70.09
59009;BME280;44794;42.652;23.318;2023-01-31T10:47:19;94223.56;;;2.95;70.77
59009;BME280;44794;42.652;23.318;2023-01-31T10:49:49;94226.22;;;2.94;71.41
59009;BME280;44794;42.652;23.318;2023-01-31T10:58:00;94245.41;;;3.02;71.43
59009;BME280;44794;42.652;23.318;2023-01-31T11:00:31;94238.81;;;2.98;72.14
59009;BME280;44794;42.652;23.318;2023-01-31T11:02:58;94246.31;;;3.18;73.05
59009;BME280;44794;42.652;23.318;2023-01-31T11:05:26;94233.03;;;3.10;71.81
59009;BME280;44794;42.652;23.318;2023-01-31T11:07:55;94242.50;;;3.25;71.89
59009;BME280;44794;42.652;23.318;2023-01-31T11:10:29;94235.75;;;3.07;72.33
59009;BME280;44794;42.652;23.318;2023-01-31T11:13:01;94245.28;;;2.88;73.37
59009;BME280;44794;42.652;23.318;2023-01-31T11:15:34;94230.16;;;2.67;74.70
59009;BME280;44794;42.652;23.318;2023-01-31T11:18:01;94241.81;;;2.72;75.62
59009;BME280;44794;42.652;23.318;2023-01-31T11:20:32;94241.81;;;2.72;76.32
59009;BME280;44794;42.652;23.318;2023-01-31T11:23:01;94235.78;;;2.39;76.97
59009;BME280;44794;42.652;23.318;2023-01-31T11:25:28;94240.47;;;2.31;78.56
59009;BME280;44794;42.652;23.318;2023-01-31T11:28:04;94241.97;;;2.35;79.42
59009;BME280;44794;42.652;23.318;2023-01-31T11:30:40;94245.44;;;2.34;79.62
59009;BME280;44794;42.652;23.318;2023-01-31T11:33:06;94233.91;;;2.43;80.16
59009;BME280;44794;42.652;23.318;2023-01-31T11:35:33;94241.75;;;2.40;80.40
59009;BME280;44794;42.652;23.318;2023-01-31T11:40:35;94234.25;;;2.19;81.34
59009;BME280;44794;42.652;23.318;2023-01-31T11:45:56;94229.31;;;2.32;82.43
59009;BME280;44794;42.652;23.318;2023-01-31T11:48:26;94229.34;;;2.49;81.91
59009;BME280;44794;42.652;23.318;2023-01-31T11:50:59;94231.69;;;2.54;81.87
59009;BME280;44794;42.652;23.318;2023-01-31T11:53:29;94230.06;;;2.34;82.57
59009;BME280;44794;42.652;23.318;2023-01-31T11:56:11;94228.19;;;2.03;84.13
59009;BME280;44794;42.652;23.318;2023-01-31T11:58:38;94221.88;;;1.93;84.79
59009;BME280;44794;42.652;23.318;2023-01-31T12:01:07;94233.69;;;1.95;85.39
59009;BME280;44794;42.652;23.318;2023-01-31T12:03:36;94223.38;;;1.97;85.07
59009;BME280;44794;42.652;23.318;2023-01-31T12:06:07;94213.22;;;1.95;84.98
59009;BME280;44794;42.652;23.318;2023-01-31T12:08:40;94232.72;;;1.98;85.38
59009;BME280;44794;42.652;23.318;2023-01-31T12:13:47;94215.97;;;1.74;86.59
59009;BME280;44794;42.652;23.318;2023-01-31T12:16:13;94220.44;;;1.69;87.37
59009;BME280;44794;42.652;23.318;2023-01-31T12:24:25;94217.19;;;1.84;85.51
59009;BME280;44794;42.652;23.318;2023-01-31T12:26:58;94218.75;;;1.86;85.21
59009;BME280;44794;42.652;23.318;2023-01-31T12:32:45;94222.06;;;2.07;83.79
59009;BME280;44794;42.652;23.318;2023-01-31T12:38:51;94220.66;;;2.18;83.03
59009;BME280;44794;42.652;23.318;2023-01-31T12:41:35;94225.69;;;2.53;82.76
59009;BME280;44794;42.652;23.318;2023-01-31T12:52:45;94234.91;;;2.57;80.70
59009;BME280;44794;42.652;23.318;2023-01-31T12:55:28;94242.72;;;2.37;80.13
59009;BME280;44794;42.652;23.318;2023-01-31T13:01:00;94239.31;;;2.20;81.03
59009;BME280;44794;42.652;23.318;2023-01-31T13:06:38;94240.38;;;2.16;82.11
59009;BME280;44794;42.652;23.318;2023-01-31T13:09:32;94234.78;;;2.08;82.80
59009;BME280;44794;42.652;23.318;2023-01-31T13:15:04;94244.91;;;1.93;82.10
59009;BME280;44794;42.652;23.318;2023-01-31T13:17:32;94250.66;;;1.98;82.53
59009;BME280;44794;42.652;23.318;2023-01-31T13:20:22;94241.47;;;2.11;82.15
59009;BME280;44794;42.652;23.318;2023-01-31T13:22:56;94243.72;;;2.00;81.63
59009;BME280;44794;42.652;23.318;2023-01-31T13:25:33;94244.91;;;1.93;81.77
59009;BME280;44794;42.652;23.318;2023-01-31T13:28:14;94249.44;;;1.88;82.11
59009;BME280;44794;42.652;23.318;2023-01-31T13:30:55;94247.31;;;1.96;82.42
59009;BME280;44794;42.652;23.318;2023-01-31T13:36:20;94245.94;;;1.89;82.73
59009;BME280;44794;42.652;23.318;2023-01-31T13:38:47;94250.66;;;1.79;83.51
59009;BME280;44794;42.652;23.318;2023-01-31T13:43:51;94241.13;;;1.83;83.87
59009;BME280;44794;42.652;23.318;2023-01-31T13:46:20;94243.84;;;1.80;84.18
59009;BME280;44794;42.652;23.318;2023-01-31T13:49:00;94250.38;;;1.85;84.63
59009;BME280;44794;42.652;23.318;2023-01-31T13:51:43;94254.69;;;1.85;84.49
59009;BME280;44794;42.652;23.318;2023-01-31T13:54:18;94255.78;;;1.79;84.25
59009;BME280;44794;42.652;23.318;2023-01-31T13:56:54;94257.81;;;1.91;84.13
59009;BME280;44794;42.652;23.318;2023-01-31T13:59:33;94255.75;;;1.98;84.19
59009;BME280;44794;42.652;23.318;2023-01-31T14:02:02;94276.25;;;1.98;83.46
59009;BME280;44794;42.652;23.318;2023-01-31T14:04:31;94268.94;;;1.90;82.67
59009;BME280;44794;42.652;23.318;2023-01-31T14:10:23;94279.84;;;1.94;82.97
59009;BME280;44794;42.652;23.318;2023-01-31T14:14:49;94276.66;;;1.89;82.90
59009;BME280;44794;42.652;23.318;2023-01-31T14:22:30;94289.50;;;1.70;82.60
59009;BME280;44794;42.652;23.318;2023-01-31T14:25:04;94275.72;;;1.73;82.74
59009;BME280;44794;42.652;23.318;2023-01-31T14:30:31;94284.63;;;1.83;82.27
59009;BME280;44794;42.652;23.318;2023-01-31T14:52:56;94315.00;;;1.72;81.70
59009;BME280;44794;42.652;23.318;2023-01-31T14:55:29;94315.69;;;1.75;82.57
59009;BME280;44794;42.652;23.318;2023-01-31T14:57:59;94321.59;;;1.77;82.07
59009;BME280;44794;42.652;23.318;2023-01-31T15:00:31;94320.31;;;1.67;82.19
59009;BME280;44794;42.652;23.318;2023-01-31T15:03:03;94324.63;;;1.67;82.39
59009;BME280;44794;42.652;23.318;2023-01-31T15:10:53;94323.44;;;1.55;83.58
59009;BME280;44794;42.652;23.318;2023-01-31T15:13:36;94337.94;;;1.55;84.25
59009;BME280;44794;42.652;23.318;2023-01-31T15:16:05;94350.38;;;1.44;84.73
59009;BME280;44794;42.652;23.318;2023-01-31T15:18:32;94335.91;;;1.43;85.51
59009;BME280;44794;42.652;23.318;2023-01-31T15:21:01;94340.22;;;1.43;86.09
59009;BME280;44794;42.652;23.318;2023-01-31T15:23:30;94346.03;;;1.46;86.08
59009;BME280;44794;42.652;23.318;2023-01-31T15:26:00;94342.19;;;1.36;86.36
59009;BME280;44794;42.652;23.318;2023-01-31T15:28:29;94340.47;;;1.37;86.59
59009;BME280;44794;42.652;23.318;2023-01-31T15:31:01;94345.53;;;1.38;86.66
59009;BME280;44794;42.652;23.318;2023-01-31T15:33:33;94356.91;;;1.31;86.87
59009;BME280;44794;42.652;23.318;2023-01-31T15:41:19;94355.31;;;1.29;86.72